sensor_id;sensor_type;location;lat;lon;timestamp;temperature;humidity
24686;DHT22;12804;51.176;4.452;2023-05-07T00:00:28;16.20;99.90
24686;DHT22;12804;51.176;4.452;2023-05-07T00:02:53;16.20;99.90
24686;DHT22;12804;51.176;4.452;2023-05-07T00:05:19;16.20;99.90
24686;DHT22;12804;51.176;4.452;2023-05-07T00:07:46;16.20;99.90
24686;DHT22;12804;51.176;4.452;2023-05-07T00:10:12;16.20;99.90
24686;DHT22;12804;51.176;4.452;2023-05-07T00:12:38;16.20;99.90
24686;DHT22;12804;51.176;4.452;2023-05-07T00:15:05;16.20;99.90
24686;DHT22;12804;51.176;4.452;2023-05-07T00:17:32;16.10;99.90
24686;DHT22;12804;51.176;4.452;2023-05-07T00:19:58;16.20;99.90
24686;DHT22;12804;51.176;4.452;2023-05-07T00:22:24;16.10;99.90
24686;DHT22;12804;51.176;4.452;2023-05-07T00:24:50;16.20;99.90
24686;DHT22;12804;51.176;4.452;2023-05-07T00:27:16;16.20;99.90
24686;DHT22;12804;51.176;4.452;2023-05-07T00:29:42;16.20;99.90
24686;DHT22;12804;51.176;4.452;2023-05-07T00:32:08;16.20;99.90
24686;DHT22;12804;51.176;4.452;2023-05-07T00:34:34;16.20;99.90
24686;DHT22;12804;51.176;4.452;2023-05-07T00:37:01;16.20;99.90
24686;DHT22;12804;51.176;4.452;2023-05-07T00:39:27;16.20;99.90
24686;DHT22;12804;51.176;4.452;2023-05-07T00:41:53;16.10;99.90
24686;DHT22;12804;51.176;4.452;2023-05-07T00:44:19;16.10;99.90
24686;DHT22;12804;51.176;4.452;2023-05-07T00:46:44;16.10;99.90
24686;DHT22;12804;51.176;4.452;2023-05-07T00:49:11;16.10;99.90
24686;DHT22;12804;51.176;4.452;2023-05-07T00:51:37;16.10;99.90
24686;DHT22;12804;51.176;4.452;2023-05-07T00:54:03;16.10;99.90
24686;DHT22;12804;51.176;4.452;2023-05-07T00:56:29;16.10;99.90
24686;DHT22;12804;51.176;4.452;2023-05-07T00:58:55;16.10;99.90
24686;DHT22;12804;51.176;4.452;2023-05-07T01:01:21;16.10;99.90
24686;DHT22;12804;51.176;4.452;2023-05-07T01:03:47;16.00;99.90
24686;DHT22;12804;51.176;4.452;2023-05-07T01:06:13;16.00;99.90
24686;DHT22;12804;51.176;4.452;2023-05-07T01:08:42;16.00;99.90
24686;DHT22;12804;51.176;4.452;2023-05-07T01:11:08;16.00;99.90
24686;DHT22;12804;51.176;4.452;2023-05-07T01:13:36;16.00;99.90
24686;DHT22;12804;51.176;4.452;2023-05-07T01:16:03;15.90;99.90
24686;DHT22;12804;51.176;4.452;2023-05-07T01:18:29;15.80;99.90
24686;DHT22;12804;51.176;4.452;2023-05-07T01:20:58;15.80;99.90
24686;DHT22;12804;51.176;4.452;2023-05-07T01:23:27;15.80;99.90
24686;DHT22;12804;51.176;4.452;2023-05-07T01:25:54;15.80;99.90
24686;DHT22;12804;51.176;4.452;2023-05-07T01:28:22;15.80;99.90
24686;DHT22;12804;51.176;4.452;2023-05-07T01:30:55;15.80;99.90
24686;DHT22;12804;51.176;4.452;2023-05-07T01:33:24;15.80;99.90
24686;DHT22;12804;51.176;4.452;2023-05-07T01:35:53;15.80;99.90
24686;DHT22;12804;51.176;4.452;2023-05-07T01:38:21;15.80;99.90
24686;DHT22;12804;51.176;4.452;2023-05-07T01:40:47;15.80;99.90
24686;DHT22;12804;51.176;4.452;2023-05-07T01:43:13;15.70;99.90
24686;DHT22;12804;51.176;4.452;2023-05-07T01:45:40;15.60;99.90
24686;DHT22;12804;51.176;4.452;2023-05-07T01:48:07;15.60;99.90
24686;DHT22;12804;51.176;4.452;2023-05-07T01:50:33;15.50;99.90
24686;DHT22;12804;51.176;4.452;2023-05-07T01:53:01;15.50;99.90
24686;DHT22;12804;51.176;4.452;2023-05-07T01:55:28;15.40;99.90
24686;DHT22;12804;51.176;4.452;2023-05-07T01:57:53;15.30;99.90
24686;DHT22;12804;51.176;4.452;2023-05-07T02:00:20;15.30;99.90
24686;DHT22;12804;51.176;4.452;2023-05-07T02:02:45;15.20;99.90
24686;DHT22;12804;51.176;4.452;2023-05-07T02:05:24;15.20;99.90
24686;DHT22;12804;51.176;4.452;2023-05-07T02:07:57;15.20;99.90
24686;DHT22;12804;51.176;4.452;2023-05-07T02:10:24;15.20;99.90
24686;DHT22;12804;51.176;4.452;2023-05-07T02:12:50;15.20;99.90
24686;DHT22;12804;51.176;4.452;2023-05-07T02:15:15;15.20;99.90
24686;DHT22;12804;51.176;4.452;2023-05-07T02:20:29;15.10;99.90
24686;DHT22;12804;51.176;4.452;2023-05-07T02:22:54;15.10;99.90
24686;DHT22;12804;51.176;4.452;2023-05-07T02:25:20;15.10;99.90
24686;DHT22;12804;51.176;4.452;2023-05-07T02:27:46;15.10;99.90
24686;DHT22;12804;51.176;4.452;2023-05-07T02:30:13;15.20;99.90
24686;DHT22;12804;51.176;4.452;2023-05-07T02:32:39;15.20;99.90
24686;DHT22;12804;51.176;4.452;2023-05-07T02:35:05;15.30;99.90
24686;DHT22;12804;51.176;4.452;2023-05-07T02:37:31;15.30;99.90
24686;DHT22;12804;51.176;4.452;2023-05-07T02:39:57;15.30;99.90
24686;DHT22;12804;51.176;4.452;2023-05-07T02:42:23;15.40;99.90
24686;DHT22;12804;51.176;4.452;2023-05-07T02:44:49;15.40;99.90
24686;DHT22;12804;51.176;4.452;2023-05-07T02:47:15;15.50;99.90
24686;DHT22;12804;51.176;4.452;2023-05-07T02:49:43;15.50;99.90
24686;DHT22;12804;51.176;4.452;2023-05-07T02:52:09;15.60;99.90
24686;DHT22;12804;51.176;4.452;2023-05-07T02:54:34;15.60;99.90
24686;DHT22;12804;51.176;4.452;2023-05-07T02:57:00;15.70;99.90
24686;DHT22;12804;51.176;4.452;2023-05-07T02:59:27;15.70;99.90
24686;DHT22;12804;51.176;4.452;2023-05-07T03:01:53;15.60;99.90
24686;DHT22;12804;51.176;4.452;2023-05-07T03:04:20;15.70;99.90
24686;DHT22;12804;51.176;4.452;2023-05-07T03:06:46;15.70;99.90
24686;DHT22;12804;51.176;4.452;2023-05-07T03:09:12;15.70;99.90
24686;DHT22;12804;51.176;4.452;2023-05-07T03:11:38;15.80;99.90
24686;DHT22;12804;51.176;4.452;2023-05-07T03:14:03;15.80;99.90
24686;DHT22;12804;51.176;4.452;2023-05-07T03:16:30;15.80;99.90
24686;DHT22;12804;51.176;4.452;2023-05-07T03:18:56;15.80;99.90
24686;DHT22;12804;51.176;4.452;2023-05-07T03:21:22;15.80;99.90
24686;DHT22;12804;51.176;4.452;2023-05-07T03:23:47;15.90;99.90
24686;DHT22;12804;51.176;4.452;2023-05-07T03:26:13;15.90;99.90
24686;DHT22;12804;51.176;4.452;2023-05-07T03:28:39;15.80;99.90
24686;DHT22;12804;51.176;4.452;2023-05-07T03:31:10;15.80;99.90
24686;DHT22;12804;51.176;4.452;2023-05-07T03:33:49;15.80;99.90
24686;DHT22;12804;51.176;4.452;2023-05-07T03:36:15;15.80;99.90
24686;DHT22;12804;51.176;4.452;2023-05-07T03:38:41;15.90;99.90
24686;DHT22;12804;51.176;4.452;2023-05-07T03:41:07;15.90;99.90
24686;DHT22;12804;51.176;4.452;2023-05-07T03:43:33;15.90;99.90
24686;DHT22;12804;51.176;4.452;2023-05-07T03:46:05;15.90;99.90
24686;DHT22;12804;51.176;4.452;2023-05-07T03:48:30;15.70;99.90
24686;DHT22;12804;51.176;4.452;2023-05-07T03:50:58;15.70;99.90
24686;DHT22;12804;51.176;4.452;2023-05-07T03:53:28;15.70;99.90
24686;DHT22;12804;51.176;4.452;2023-05-07T03:55:54;15.70;99.90
24686;DHT22;12804;51.176;4.452;2023-05-07T03:58:20;15.80;99.90
24686;DHT22;12804;51.176;4.452;2023-05-07T04:00:46;15.80;99.90
24686;DHT22;12804;51.176;4.452;2023-05-07T04:03:23;15.70;99.90
24686;DHT22;12804;51.176;4.452;2023-05-07T04:05:50;15.70;99.90
24686;DHT22;12804;51.176;4.452;2023-05-07T04:08:16;15.70;99.90
24686;DHT22;12804;51.176;4.452;2023-05-07T04:10:46;15.60;99.90
24686;DHT22;12804;51.176;4.452;2023-05-07T04:13:13;15.60;99.90
24686;DHT22;12804;51.176;4.452;2023-05-07T04:15:38;15.60;99.90
24686;DHT22;12804;51.176;4.452;2023-05-07T04:18:08;15.60;99.90
24686;DHT22;12804;51.176;4.452;2023-05-07T04:20:34;15.60;99.90
24686;DHT22;12804;51.176;4.452;2023-05-07T04:23:03;15.70;99.90
24686;DHT22;12804;51.176;4.452;2023-05-07T04:25:30;15.70;99.90
24686;DHT22;12804;51.176;4.452;2023-05-07T04:28:04;15.80;99.90
24686;DHT22;12804;51.176;4.452;2023-05-07T04:30:30;15.80;99.90
24686;DHT22;12804;51.176;4.452;2023-05-07T04:32:56;15.80;99.90
24686;DHT22;12804;51.176;4.452;2023-05-07T04:35:23;15.80;99.90
24686;DHT22;12804;51.176;4.452;2023-05-07T04:37:49;15.80;99.90
24686;DHT22;12804;51.176;4.452;2023-05-07T04:40:15;15.90;99.90
24686;DHT22;12804;51.176;4.452;2023-05-07T04:42:42;15.90;99.90
24686;DHT22;12804;51.176;4.452;2023-05-07T04:45:09;16.00;99.90
24686;DHT22;12804;51.176;4.452;2023-05-07T04:47:37;16.10;99.90
24686;DHT22;12804;51.176;4.452;2023-05-07T04:50:03;16.00;99.90
24686;DHT22;12804;51.176;4.452;2023-05-07T04:52:28;16.10;99.90
24686;DHT22;12804;51.176;4.452;2023-05-07T04:54:54;16.20;99.90
24686;DHT22;12804;51.176;4.452;2023-05-07T04:57:20;16.20;99.90
24686;DHT22;12804;51.176;4.452;2023-05-07T04:59:47;16.30;99.90
24686;DHT22;12804;51.176;4.452;2023-05-07T05:02:13;16.30;99.90
24686;DHT22;12804;51.176;4.452;2023-05-07T05:04:39;16.30;99.90
24686;DHT22;12804;51.176;4.452;2023-05-07T05:07:06;16.20;99.90
24686;DHT22;12804;51.176;4.452;2023-05-07T05:09:33;16.30;99.90
24686;DHT22;12804;51.176;4.452;2023-05-07T05:11:59;16.40;99.90
24686;DHT22;12804;51.176;4.452;2023-05-07T05:14:25;16.40;99.90
24686;DHT22;12804;51.176;4.452;2023-05-07T05:16:51;16.40;99.90
24686;DHT22;12804;51.176;4.452;2023-05-07T05:19:17;16.50;99.90
24686;DHT22;12804;51.176;4.452;2023-05-07T05:21:44;16.50;99.90
24686;DHT22;12804;51.176;4.452;2023-05-07T05:24:11;16.50;99.90
24686;DHT22;12804;51.176;4.452;2023-05-07T05:26:38;16.60;99.90
24686;DHT22;12804;51.176;4.452;2023-05-07T05:29:04;16.60;99.90
24686;DHT22;12804;51.176;4.452;2023-05-07T05:31:31;16.70;99.90
24686;DHT22;12804;51.176;4.452;2023-05-07T05:33:57;16.70;99.90
24686;DHT22;12804;51.176;4.452;2023-05-07T05:36:23;16.70;99.90
24686;DHT22;12804;51.176;4.452;2023-05-07T05:38:51;16.80;99.90
24686;DHT22;12804;51.176;4.452;2023-05-07T05:41:17;16.80;99.90
24686;DHT22;12804;51.176;4.452;2023-05-07T05:43:43;16.90;99.90
24686;DHT22;12804;51.176;4.452;2023-05-07T05:46:10;17.00;99.90
24686;DHT22;12804;51.176;4.452;2023-05-07T05:48:37;17.00;99.90
24686;DHT22;12804;51.176;4.452;2023-05-07T05:51:04;17.00;99.90
24686;DHT22;12804;51.176;4.452;2023-05-07T05:53:29;17.10;99.90
24686;DHT22;12804;51.176;4.452;2023-05-07T05:55:55;17.20;99.90
24686;DHT22;12804;51.176;4.452;2023-05-07T05:58:21;17.20;99.90
24686;DHT22;12804;51.176;4.452;2023-05-07T06:00:52;17.30;99.90
24686;DHT22;12804;51.176;4.452;2023-05-07T06:03:20;17.30;99.90
24686;DHT22;12804;51.176;4.452;2023-05-07T06:05:47;17.30;99.90
24686;DHT22;12804;51.176;4.452;2023-05-07T06:08:13;17.30;99.90
24686;DHT22;12804;51.176;4.452;2023-05-07T06:10:39;17.20;99.90
24686;DHT22;12804;51.176;4.452;2023-05-07T06:13:07;17.30;99.90
24686;DHT22;12804;51.176;4.452;2023-05-07T06:15:34;17.30;99.90
24686;DHT22;12804;51.176;4.452;2023-05-07T06:18:05;17.40;99.90
24686;DHT22;12804;51.176;4.452;2023-05-07T06:20:31;17.50;99.90
24686;DHT22;12804;51.176;4.452;2023-05-07T06:22:59;17.50;99.90
24686;DHT22;12804;51.176;4.452;2023-05-07T06:25:25;17.60;99.90
24686;DHT22;12804;51.176;4.452;2023-05-07T06:27:51;17.80;99.90
24686;DHT22;12804;51.176;4.452;2023-05-07T06:30:16;17.90;99.90
24686;DHT22;12804;51.176;4.452;2023-05-07T06:32:42;18.10;99.90
24686;DHT22;12804;51.176;4.452;2023-05-07T06:35:09;18.00;98.20
24686;DHT22;12804;51.176;4.452;2023-05-07T06:37:38;18.20;98.10
24686;DHT22;12804;51.176;4.452;2023-05-07T06:40:12;18.40;97.20
24686;DHT22;12804;51.176;4.452;2023-05-07T06:42:39;18.50;94.70
24686;DHT22;12804;51.176;4.452;2023-05-07T06:45:22;18.70;93.40
24686;DHT22;12804;51.176;4.452;2023-05-07T06:47:48;18.90;91.20
24686;DHT22;12804;51.176;4.452;2023-05-07T06:50:14;19.00;88.30
24686;DHT22;12804;51.176;4.452;2023-05-07T06:52:42;19.00;79.20
24686;DHT22;12804;51.176;4.452;2023-05-07T06:55:09;18.10;90.30
24686;DHT22;12804;51.176;4.452;2023-05-07T06:57:34;17.80;96.60
24686;DHT22;12804;51.176;4.452;2023-05-07T07:00:00;17.60;99.90
24686;DHT22;12804;51.176;4.452;2023-05-07T07:02:26;17.60;98.70
24686;DHT22;12804;51.176;4.452;2023-05-07T07:04:52;17.20;99.90
24686;DHT22;12804;51.176;4.452;2023-05-07T07:07:19;16.90;99.90
24686;DHT22;12804;51.176;4.452;2023-05-07T07:09:46;17.00;99.90
24686;DHT22;12804;51.176;4.452;2023-05-07T07:12:15;17.30;99.90
24686;DHT22;12804;51.176;4.452;2023-05-07T07:14:42;17.70;99.90
24686;DHT22;12804;51.176;4.452;2023-05-07T07:17:08;18.10;99.90
24686;DHT22;12804;51.176;4.452;2023-05-07T07:19:33;18.30;98.50
24686;DHT22;12804;51.176;4.452;2023-05-07T07:22:02;18.30;99.70
24686;DHT22;12804;51.176;4.452;2023-05-07T07:24:28;18.30;98.00
24686;DHT22;12804;51.176;4.452;2023-05-07T07:26:57;18.20;98.20
24686;DHT22;12804;51.176;4.452;2023-05-07T07:29:24;18.00;98.10
24686;DHT22;12804;51.176;4.452;2023-05-07T07:31:52;18.10;96.60
24686;DHT22;12804;51.176;4.452;2023-05-07T07:34:19;17.80;99.00
24686;DHT22;12804;51.176;4.452;2023-05-07T07:36:45;17.90;98.80
24686;DHT22;12804;51.176;4.452;2023-05-07T07:39:12;18.40;95.40
24686;DHT22;12804;51.176;4.452;2023-05-07T07:41:39;18.80;89.60
24686;DHT22;12804;51.176;4.452;2023-05-07T07:44:05;18.50;92.70
24686;DHT22;12804;51.176;4.452;2023-05-07T07:46:34;18.90;89.50
24686;DHT22;12804;51.176;4.452;2023-05-07T07:49:00;19.10;74.10
24686;DHT22;12804;51.176;4.452;2023-05-07T07:51:27;19.10;69.10
24686;DHT22;12804;51.176;4.452;2023-05-07T07:53:53;19.40;61.30
24686;DHT22;12804;51.176;4.452;2023-05-07T07:56:19;19.20;52.50
24686;DHT22;12804;51.176;4.452;2023-05-07T07:58:45;19.00;54.10
24686;DHT22;12804;51.176;4.452;2023-05-07T08:01:11;19.20;60.70
24686;DHT22;12804;51.176;4.452;2023-05-07T08:03:38;19.50;53.50
24686;DHT22;12804;51.176;4.452;2023-05-07T08:06:04;19.80;36.80
24686;DHT22;12804;51.176;4.452;2023-05-07T08:08:32;20.00;30.80
24686;DHT22;12804;51.176;4.452;2023-05-07T08:10:57;19.40;38.00
24686;DHT22;12804;51.176;4.452;2023-05-07T08:13:29;19.10;53.20
24686;DHT22;12804;51.176;4.452;2023-05-07T08:15:55;19.20;51.30
24686;DHT22;12804;51.176;4.452;2023-05-07T08:18:21;19.60;41.60
24686;DHT22;12804;51.176;4.452;2023-05-07T08:20:49;19.60;29.00
24686;DHT22;12804;51.176;4.452;2023-05-07T08:23:19;20.10;19.20
24686;DHT22;12804;51.176;4.452;2023-05-07T08:25:45;20.20;10.40
24686;DHT22;12804;51.176;4.452;2023-05-07T08:28:12;19.80;14.90
24686;DHT22;12804;51.176;4.452;2023-05-07T08:30:42;19.20;34.90
24686;DHT22;12804;51.176;4.452;2023-05-07T08:33:09;19.10;46.80
24686;DHT22;12804;51.176;4.452;2023-05-07T08:35:35;19.40;37.70
24686;DHT22;12804;51.176;4.452;2023-05-07T08:38:01;19.30;39.90
24686;DHT22;12804;51.176;4.452;2023-05-07T08:40:28;19.60;31.00
24686;DHT22;12804;51.176;4.452;2023-05-07T08:42:57;20.00;26.00
24686;DHT22;12804;51.176;4.452;2023-05-07T08:45:24;20.20;12.90
24686;DHT22;12804;51.176;4.452;2023-05-07T08:47:54;19.60;26.70
24686;DHT22;12804;51.176;4.452;2023-05-07T08:50:24;19.30;44.10
24686;DHT22;12804;51.176;4.452;2023-05-07T08:52:51;19.50;41.70
24686;DHT22;12804;51.176;4.452;2023-05-07T08:55:18;20.00;26.10
24686;DHT22;12804;51.176;4.452;2023-05-07T08:57:44;20.20;16.50
24686;DHT22;12804;51.176;4.452;2023-05-07T09:00:12;20.40;8.80
24686;DHT22;12804;51.176;4.452;2023-05-07T09:02:39;20.30;17.20
24686;DHT22;12804;51.176;4.452;2023-05-07T09:05:07;20.70;1.00
24686;DHT22;12804;51.176;4.452;2023-05-07T09:07:34;20.50;1.00
24686;DHT22;12804;51.176;4.452;2023-05-07T09:10:04;19.60;29.40
24686;DHT22;12804;51.176;4.452;2023-05-07T09:12:32;19.60;42.40
24686;DHT22;12804;51.176;4.452;2023-05-07T09:14:59;19.60;42.00
24686;DHT22;12804;51.176;4.452;2023-05-07T09:17:26;19.20;53.90
24686;DHT22;12804;51.176;4.452;2023-05-07T09:19:53;19.60;54.90
24686;DHT22;12804;51.176;4.452;2023-05-07T09:22:19;20.10;36.40
24686;DHT22;12804;51.176;4.452;2023-05-07T09:24:55;20.00;37.20
24686;DHT22;12804;51.176;4.452;2023-05-07T09:27:25;20.00;33.80
24686;DHT22;12804;51.176;4.452;2023-05-07T09:29:52;20.10;42.00
24686;DHT22;12804;51.176;4.452;2023-05-07T09:32:18;19.50;60.20
24686;DHT22;12804;51.176;4.452;2023-05-07T09:34:44;18.60;87.40
24686;DHT22;12804;51.176;4.452;2023-05-07T09:37:12;18.50;95.40
24686;DHT22;12804;51.176;4.452;2023-05-07T09:39:47;18.70;91.50
24686;DHT22;12804;51.176;4.452;2023-05-07T09:42:16;18.80;92.50
24686;DHT22;12804;51.176;4.452;2023-05-07T09:44:49;18.40;95.30
24686;DHT22;12804;51.176;4.452;2023-05-07T09:47:20;17.80;99.90
24686;DHT22;12804;51.176;4.452;2023-05-07T09:49:55;17.70;99.90
24686;DHT22;12804;51.176;4.452;2023-05-07T09:52:22;17.70;99.90
24686;DHT22;12804;51.176;4.452;2023-05-07T09:54:53;17.90;99.90
24686;DHT22;12804;51.176;4.452;2023-05-07T09:57:24;18.00;99.90
24686;DHT22;12804;51.176;4.452;2023-05-07T09:59:56;17.90;99.90
24686;DHT22;12804;51.176;4.452;2023-05-07T10:02:27;18.00;99.90
24686;DHT22;12804;51.176;4.452;2023-05-07T10:04:55;18.20;99.90
24686;DHT22;12804;51.176;4.452;2023-05-07T10:07:27;18.50;99.90
24686;DHT22;12804;51.176;4.452;2023-05-07T10:09:59;18.80;99.90
24686;DHT22;12804;51.176;4.452;2023-05-07T10:12:35;18.70;99.70
24686;DHT22;12804;51.176;4.452;2023-05-07T10:15:08;18.50;99.90
24686;DHT22;12804;51.176;4.452;2023-05-07T10:17:40;18.50;99.90
24686;DHT22;12804;51.176;4.452;2023-05-07T10:20:09;18.20;99.90
24686;DHT22;12804;51.176;4.452;2023-05-07T10:22:41;17.90;99.90
24686;DHT22;12804;51.176;4.452;2023-05-07T10:25:22;17.60;99.90
24686;DHT22;12804;51.176;4.452;2023-05-07T10:27:50;17.50;99.90
24686;DHT22;12804;51.176;4.452;2023-05-07T10:30:44;17.50;99.90
24686;DHT22;12804;51.176;4.452;2023-05-07T10:33:13;17.60;99.90
24686;DHT22;12804;51.176;4.452;2023-05-07T10:35:45;17.60;99.90
24686;DHT22;12804;51.176;4.452;2023-05-07T10:38:13;17.50;99.90
24686;DHT22;12804;51.176;4.452;2023-05-07T10:40:41;17.60;99.90
24686;DHT22;12804;51.176;4.452;2023-05-07T10:43:08;17.80;99.90
24686;DHT22;12804;51.176;4.452;2023-05-07T10:45:40;17.80;99.90
24686;DHT22;12804;51.176;4.452;2023-05-07T10:48:14;17.60;99.90
24686;DHT22;12804;51.176;4.452;2023-05-07T10:50:43;17.70;99.90
24686;DHT22;12804;51.176;4.452;2023-05-07T10:59:37;18.30;99.90
24686;DHT22;12804;51.176;4.452;2023-05-07T11:02:22;18.80;99.90
24686;DHT22;12804;51.176;4.452;2023-05-07T11:05:22;18.90;99.90
24686;DHT22;12804;51.176;4.452;2023-05-07T11:08:02;19.00;99.90
24686;DHT22;12804;51.176;4.452;2023-05-07T11:10:57;18.70;99.90
24686;DHT22;12804;51.176;4.452;2023-05-07T11:13:48;18.50;99.90
24686;DHT22;12804;51.176;4.452;2023-05-07T11:16:32;18.80;99.90
24686;DHT22;12804;51.176;4.452;2023-05-07T11:19:10;18.80;99.90
24686;DHT22;12804;51.176;4.452;2023-05-07T11:21:43;18.30;99.90
24686;DHT22;12804;51.176;4.452;2023-05-07T11:24:41;18.10;99.90
24686;DHT22;12804;51.176;4.452;2023-05-07T11:27:08;18.20;99.90
24686;DHT22;12804;51.176;4.452;2023-05-07T11:29:34;18.00;99.90
24686;DHT22;12804;51.176;4.452;2023-05-07T11:32:07;18.00;99.90
24686;DHT22;12804;51.176;4.452;2023-05-07T11:34:40;18.00;99.90
24686;DHT22;12804;51.176;4.452;2023-05-07T11:37:06;17.90;99.90
24686;DHT22;12804;51.176;4.452;2023-05-07T11:40:08;18.20;99.90
24686;DHT22;12804;51.176;4.452;2023-05-07T11:42:37;18.20;99.90
24686;DHT22;12804;51.176;4.452;2023-05-07T11:45:06;18.50;99.90
24686;DHT22;12804;51.176;4.452;2023-05-07T11:47:33;19.20;99.90
24686;DHT22;12804;51.176;4.452;2023-05-07T11:50:04;19.40;97.90
24686;DHT22;12804;51.176;4.452;2023-05-07T11:52:30;19.20;94.90
24686;DHT22;12804;51.176;4.452;2023-05-07T11:54:57;19.30;97.20
24686;DHT22;12804;51.176;4.452;2023-05-07T11:57:24;19.40;93.50
24686;DHT22;12804;51.176;4.452;2023-05-07T11:59:57;19.40;93.40
24686;DHT22;12804;51.176;4.452;2023-05-07T12:02:24;19.60;90.70
24686;DHT22;12804;51.176;4.452;2023-05-07T12:04:53;19.80;82.50
24686;DHT22;12804;51.176;4.452;2023-05-07T12:07:19;19.90;72.20
24686;DHT22;12804;51.176;4.452;2023-05-07T12:09:46;20.20;64.10
24686;DHT22;12804;51.176;4.452;2023-05-07T12:12:13;20.40;52.50
24686;DHT22;12804;51.176;4.452;2023-05-07T12:14:44;19.70;81.30
24686;DHT22;12804;51.176;4.452;2023-05-07T12:17:12;19.90;84.00
24686;DHT22;12804;51.176;4.452;2023-05-07T12:19:40;20.30;71.00
24686;DHT22;12804;51.176;4.452;2023-05-07T12:22:09;20.60;60.90
24686;DHT22;12804;51.176;4.452;2023-05-07T12:24:49;20.70;58.40
24686;DHT22;12804;51.176;4.452;2023-05-07T12:27:16;20.90;59.70
24686;DHT22;12804;51.176;4.452;2023-05-07T12:29:46;21.00;46.20
24686;DHT22;12804;51.176;4.452;2023-05-07T12:32:17;21.20;32.00
24686;DHT22;12804;51.176;4.452;2023-05-07T12:34:44;21.30;29.80
24686;DHT22;12804;51.176;4.452;2023-05-07T12:37:10;21.40;31.50
24686;DHT22;12804;51.176;4.452;2023-05-07T12:39:36;21.40;27.50
24686;DHT22;12804;51.176;4.452;2023-05-07T12:42:02;21.20;29.10
24686;DHT22;12804;51.176;4.452;2023-05-07T12:44:33;20.80;45.90
24686;DHT22;12804;51.176;4.452;2023-05-07T12:47:03;20.80;50.30
24686;DHT22;12804;51.176;4.452;2023-05-07T12:49:29;20.90;40.50
24686;DHT22;12804;51.176;4.452;2023-05-07T12:51:54;19.80;59.30
24686;DHT22;12804;51.176;4.452;2023-05-07T12:54:31;20.00;80.30
24686;DHT22;12804;51.176;4.452;2023-05-07T12:57:19;20.60;63.70
24686;DHT22;12804;51.176;4.452;2023-05-07T12:59:46;21.20;43.00
24686;DHT22;12804;51.176;4.452;2023-05-07T13:02:12;21.60;42.40
24686;DHT22;12804;51.176;4.452;2023-05-07T13:04:39;21.70;28.10
24686;DHT22;12804;51.176;4.452;2023-05-07T13:07:05;22.00;20.90
24686;DHT22;12804;51.176;4.452;2023-05-07T13:09:31;22.10;8.60
24686;DHT22;12804;51.176;4.452;2023-05-07T13:11:57;21.90;1.70
24686;DHT22;12804;51.176;4.452;2023-05-07T13:14:26;21.80;6.40
24686;DHT22;12804;51.176;4.452;2023-05-07T13:16:52;21.90;1.00
24686;DHT22;12804;51.176;4.452;2023-05-07T13:19:18;21.20;12.60
24686;DHT22;12804;51.176;4.452;2023-05-07T13:21:44;21.30;1.00
24686;DHT22;12804;51.176;4.452;2023-05-07T13:24:10;21.90;1.00
24686;DHT22;12804;51.176;4.452;2023-05-07T13:26:35;22.30;1.00
24686;DHT22;12804;51.176;4.452;2023-05-07T13:29:01;22.80;1.00
24686;DHT22;12804;51.176;4.452;2023-05-07T13:31:27;23.20;1.00
24686;DHT22;12804;51.176;4.452;2023-05-07T13:33:53;23.30;1.00
24686;DHT22;12804;51.176;4.452;2023-05-07T13:36:19;22.70;1.00
24686;DHT22;12804;51.176;4.452;2023-05-07T13:38:45;22.80;1.00
24686;DHT22;12804;51.176;4.452;2023-05-07T13:41:11;22.00;1.00
24686;DHT22;12804;51.176;4.452;2023-05-07T13:43:38;21.50;1.00
24686;DHT22;12804;51.176;4.452;2023-05-07T13:46:04;21.30;10.70
24686;DHT22;12804;51.176;4.452;2023-05-07T13:48:30;21.10;12.90
24686;DHT22;12804;51.176;4.452;2023-05-07T13:50:55;21.60;1.00
24686;DHT22;12804;51.176;4.452;2023-05-07T13:53:21;22.10;1.00
24686;DHT22;12804;51.176;4.452;2023-05-07T13:55:47;22.10;1.00
24686;DHT22;12804;51.176;4.452;2023-05-07T13:58:13;22.30;1.00
24686;DHT22;12804;51.176;4.452;2023-05-07T14:00:39;22.50;1.00
24686;DHT22;12804;51.176;4.452;2023-05-07T14:03:05;22.70;1.00
24686;DHT22;12804;51.176;4.452;2023-05-07T14:05:31;23.10;1.00
24686;DHT22;12804;51.176;4.452;2023-05-07T14:07:57;23.40;1.00
24686;DHT22;12804;51.176;4.452;2023-05-07T14:10:24;23.70;1.00
24686;DHT22;12804;51.176;4.452;2023-05-07T14:12:50;23.70;1.00
24686;DHT22;12804;51.176;4.452;2023-05-07T14:15:16;23.00;1.00
24686;DHT22;12804;51.176;4.452;2023-05-07T14:17:42;23.40;1.00
24686;DHT22;12804;51.176;4.452;2023-05-07T14:20:08;23.60;1.00
24686;DHT22;12804;51.176;4.452;2023-05-07T14:22:36;23.70;1.00
24686;DHT22;12804;51.176;4.452;2023-05-07T14:25:02;23.90;1.00
24686;DHT22;12804;51.176;4.452;2023-05-07T14:27:28;23.90;1.00
24686;DHT22;12804;51.176;4.452;2023-05-07T14:29:54;23.00;1.00
24686;DHT22;12804;51.176;4.452;2023-05-07T14:32:21;22.20;1.00
24686;DHT22;12804;51.176;4.452;2023-05-07T14:34:47;22.40;1.00
24686;DHT22;12804;51.176;4.452;2023-05-07T14:37:12;22.70;1.00
24686;DHT22;12804;51.176;4.452;2023-05-07T14:39:39;22.50;1.00
24686;DHT22;12804;51.176;4.452;2023-05-07T14:42:05;22.90;1.00
24686;DHT22;12804;51.176;4.452;2023-05-07T14:44:31;22.70;1.00
24686;DHT22;12804;51.176;4.452;2023-05-07T14:46:56;22.80;1.00
24686;DHT22;12804;51.176;4.452;2023-05-07T14:49:22;22.90;1.00
24686;DHT22;12804;51.176;4.452;2023-05-07T14:51:49;23.10;1.00
24686;DHT22;12804;51.176;4.452;2023-05-07T14:54:15;23.10;1.00
24686;DHT22;12804;51.176;4.452;2023-05-07T14:56:41;23.20;1.00
24686;DHT22;12804;51.176;4.452;2023-05-07T14:59:08;23.20;1.00
24686;DHT22;12804;51.176;4.452;2023-05-07T15:01:35;23.50;1.00
24686;DHT22;12804;51.176;4.452;2023-05-07T15:04:03;23.80;1.00
24686;DHT22;12804;51.176;4.452;2023-05-07T15:06:30;23.90;1.00
24686;DHT22;12804;51.176;4.452;2023-05-07T15:08:56;24.20;1.00
24686;DHT22;12804;51.176;4.452;2023-05-07T15:11:22;23.90;1.00
24686;DHT22;12804;51.176;4.452;2023-05-07T15:13:48;24.10;1.00
24686;DHT22;12804;51.176;4.452;2023-05-07T15:16:14;24.20;1.00
24686;DHT22;12804;51.176;4.452;2023-05-07T15:18:40;24.40;1.00
24686;DHT22;12804;51.176;4.452;2023-05-07T15:21:06;24.60;1.00
24686;DHT22;12804;51.176;4.452;2023-05-07T15:23:33;25.10;1.00
24686;DHT22;12804;51.176;4.452;2023-05-07T15:25:58;25.40;1.00
24686;DHT22;12804;51.176;4.452;2023-05-07T15:28:24;25.20;1.00
24686;DHT22;12804;51.176;4.452;2023-05-07T15:30:52;25.00;1.00
24686;DHT22;12804;51.176;4.452;2023-05-07T15:33:18;24.50;1.00
24686;DHT22;12804;51.176;4.452;2023-05-07T15:35:44;23.80;1.00
24686;DHT22;12804;51.176;4.452;2023-05-07T15:38:10;23.90;1.00
24686;DHT22;12804;51.176;4.452;2023-05-07T15:40:36;23.20;1.00
24686;DHT22;12804;51.176;4.452;2023-05-07T15:43:07;23.50;1.00
24686;DHT22;12804;51.176;4.452;2023-05-07T15:45:39;23.50;1.00